Time,TemperatureF,DewpointF,PressureIn,WindDirection,WindDirectionDegrees,WindSpeedMPH,WindSpeedGustMPH,Humidity,HourlyPrecipIn,Conditions,Clouds,dailyrainin,SolarRadiationWatts/m^2,SoftwareType,DateUTC
2013-01-03 00:02:00,19.0,14.0,-100.00,WNW,291,9.0,14.0,81,0.00,,,0.00,0.000000,,2013-01-03 06:02:00,
2013-01-03 00:12:00,19.0,14.0,-100.00,WNW,291,9.0,14.0,81,0.00,,,0.00,0.000000,,2013-01-03 06:12:00,
2013-01-03 00:20:00,18.0,13.0,-100.00,WNW,297,9.0,15.0,80,0.00,,,0.00,0.000000,,2013-01-03 06:20:00,
2013-01-03 00:42:00,18.0,13.0,-100.00,WNW,297,9.0,15.0,80,0.00,,,0.00,0.000000,,2013-01-03 06:42:00,
2013-01-03 00:53:00,18.0,13.0,-100.00,WNW,297,9.0,15.0,80,0.00,,,0.00,0.000000,,2013-01-03 06:53:00,
2013-01-03 01:02:00,18.0,13.0,-100.00,WNW,297,9.0,15.0,80,0.00,,,0.00,0.000000,,2013-01-03 07:02:00,
2013-01-03 01:12:00,18.0,13.0,-100.00,WNW,297,9.0,15.0,80,0.00,,,0.00,0.000000,,2013-01-03 07:12:00,
2013-01-03 01:20:00,17.0,12.0,-100.00,WNW,291,7.0,15.0,80,0.00,,,0.00,0.000000,,2013-01-03 07:20:00,
2013-01-03 01:43:00,17.0,12.0,-100.00,WNW,291,7.0,15.0,80,0.00,,,0.00,0.000000,,2013-01-03 07:43:00,
2013-01-03 01:53:00,17.0,12.0,-100.00,WNW,291,7.0,15.0,80,0.00,,,0.00,0.000000,,2013-01-03 07:53:00,
2013-01-03 02:02:00,17.0,12.0,-100.00,WNW,291,7.0,15.0,80,0.00,,,0.00,0.000000,,2013-01-03 08:02:00,
2013-01-03 02:12:00,17.0,12.0,-100.00,WNW,291,7.0,15.0,80,0.00,,,0.00,0.000000,,2013-01-03 08:12:00,
2013-01-03 02:20:00,16.0,11.0,-100.00,WNW,284,8.0,13.0,79,0.00,,,0.00,0.000000,,2013-01-03 08:20:00,
2013-01-03 02:43:00,16.0,11.0,-100.00,WNW,284,8.0,13.0,79,0.00,,,0.00,0.000000,,2013-01-03 08:43:00,
2013-01-03 02:53:00,16.0,11.0,-100.00,WNW,284,8.0,13.0,79,0.00,,,0.00,0.000000,,2013-01-03 08:53:00,
2013-01-03 03:02:00,16.0,11.0,-100.00,WNW,284,8.0,13.0,79,0.00,,,0.00,0.000000,,2013-01-03 09:02:00,
2013-01-03 03:12:00,16.0,11.0,-100.00,WNW,284,8.0,13.0,79,0.00,,,0.00,0.000000,,2013-01-03 09:12:00,
2013-01-03 03:20:00,15.0,9.0,-100.00,WNW,293,10.0,16.0,78,0.00,,,0.00,0.000000,,2013-01-03 09:20:00,
2013-01-03 03:43:00,15.0,9.0,-100.00,WNW,293,10.0,16.0,78,0.00,,,0.00,0.000000,,2013-01-03 09:43:00,
2013-01-03 03:53:00,15.0,9.0,-100.00,WNW,293,10.0,16.0,78,0.00,,,0.00,0.000000,,2013-01-03 09:53:00,
2013-01-03 04:02:00,15.0,9.0,-100.00,WNW,293,10.0,16.0,78,0.00,,,0.00,0.000000,,2013-01-03 10:02:00,
2013-01-03 04:12:00,15.0,9.0,-100.00,WNW,293,10.0,16.0,78,0.00,,,0.00,0.000000,,2013-01-03 10:12:00,
2013-01-03 04:20:00,14.0,8.0,-100.00,WNW,292,10.0,16.0,77,0.00,,,-99.99,0.000000,,2013-01-03 10:20:00,
2013-01-03 04:43:00,14.0,8.0,-100.00,WNW,292,10.0,16.0,77,0.00,,,-99.99,0.000000,,2013-01-03 10:43:00,
2013-01-03 04:53:00,14.0,8.0,-100.00,WNW,292,10.0,16.0,77,0.00,,,-99.99,0.000000,,2013-01-03 10:53:00,
2013-01-03 05:02:00,14.0,8.0,-100.00,WNW,292,10.0,16.0,77,0.00,,,-99.99,0.000000,,2013-01-03 11:02:00,
2013-01-03 05:12:00,14.0,8.0,-100.00,WNW,292,10.0,16.0,77,0.00,,,-99.99,0.000000,,2013-01-03 11:12:00,
2013-01-03 05:20:00,12.0,7.0,-100.00,WNW,287,7.0,16.0,79,0.00,,,0.00,0.000000,,2013-01-03 11:20:00,
2013-01-03 05:43:00,12.0,7.0,-100.00,WNW,287,7.0,16.0,79,0.00,,,0.00,0.000000,,2013-01-03 11:43:00,
2013-01-03 05:53:00,12.0,7.0,-100.00,WNW,287,7.0,16.0,79,0.00,,,0.00,0.000000,,2013-01-03 11:53:00,
2013-01-03 06:03:00,12.0,7.0,-100.00,WNW,287,7.0,16.0,79,0.00,,,0.00,0.000000,,2013-01-03 12:03:00,
2013-01-03 06:12:00,12.0,7.0,-100.00,WNW,287,7.0,16.0,79,0.00,,,0.00,0.000000,,2013-01-03 12:12:00,
2013-01-03 06:20:00,12.0,7.0,-100.00,WNW,299,8.0,14.0,81,0.00,,,0.00,0.000000,,2013-01-03 12:20:00,
2013-01-03 06:43:00,12.0,7.0,-100.00,WNW,299,8.0,14.0,81,0.00,,,0.00,0.000000,,2013-01-03 12:43:00,
2013-01-03 06:53:00,12.0,7.0,-100.00,WNW,299,8.0,14.0,81,0.00,,,0.00,0.000000,,2013-01-03 12:53:00,
2013-01-03 07:02:00,12.0,7.0,-100.00,WNW,299,8.0,14.0,81,0.00,,,0.00,0.000000,,2013-01-03 13:02:00,
2013-01-03 07:12:00,12.0,7.0,-100.00,WNW,299,8.0,14.0,81,0.00,,,0.00,0.000000,,2013-01-03 13:12:00,
2013-01-03 07:20:00,11.0,6.0,-100.00,WNW,289,7.0,16.0,81,0.00,,,0.00,0.000000,,2013-01-03 13:20:00,
2013-01-03 07:43:00,11.0,6.0,-100.00,WNW,289,7.0,16.0,81,0.00,,,0.00,0.000000,,2013-01-03 13:43:00,
2013-01-03 07:53:00,11.0,6.0,-100.00,WNW,289,7.0,16.0,81,0.00,,,0.00,0.000000,,2013-01-03 13:53:00,
2013-01-03 08:03:00,11.0,6.0,-100.00,WNW,289,7.0,16.0,81,0.00,,,0.00,0.000000,,2013-01-03 14:03:00,
2013-01-03 08:12:00,11.0,6.0,-100.00,WNW,289,7.0,16.0,81,0.00,,,0.00,0.000000,,2013-01-03 14:12:00,
2013-01-03 08:20:00,10.0,5.0,-100.00,WNW,292,8.0,13.0,81,0.00,,,0.00,3.000000,,2013-01-03 14:20:00,
2013-01-03 08:43:00,10.0,5.0,-100.00,WNW,292,8.0,13.0,81,0.00,,,0.00,3.000000,,2013-01-03 14:43:00,
2013-01-03 08:53:00,10.0,5.0,-100.00,WNW,292,8.0,13.0,81,0.00,,,0.00,3.000000,,2013-01-03 14:53:00,
2013-01-03 09:03:00,10.0,5.0,-100.00,WNW,292,8.0,13.0,81,0.00,,,0.00,3.000000,,2013-01-03 15:03:00,
2013-01-03 09:12:00,10.0,5.0,-100.00,WNW,292,8.0,13.0,81,0.00,,,0.00,3.000000,,2013-01-03 15:12:00,
2013-01-03 09:20:00,10.0,5.0,-100.00,WNW,291,7.0,11.0,80,0.00,,,0.00,45.000000,,2013-01-03 15:20:00,
2013-01-03 09:43:00,10.0,5.0,-100.00,WNW,291,7.0,11.0,80,0.00,,,0.00,45.000000,,2013-01-03 15:43:00,
2013-01-03 09:53:00,10.0,5.0,-100.00,WNW,291,7.0,11.0,80,0.00,,,0.00,45.000000,,2013-01-03 15:53:00,
2013-01-03 10:03:00,10.0,5.0,-100.00,WNW,291,7.0,11.0,80,0.00,,,0.00,45.000000,,2013-01-03 16:03:00,
2013-01-03 10:12:00,10.0,5.0,-100.00,WNW,291,7.0,11.0,80,0.00,,,0.00,45.000000,,2013-01-03 16:12:00,
2013-01-03 10:20:00,10.0,4.0,-100.00,WNW,282,8.0,14.0,76,0.00,,,0.00,134.000000,,2013-01-03 16:20:00,
2013-01-03 10:43:00,10.0,4.0,-100.00,WNW,282,8.0,14.0,76,0.00,,,0.00,134.000000,,2013-01-03 16:43:00,
2013-01-03 10:53:00,10.0,4.0,-100.00,WNW,282,8.0,14.0,76,0.00,,,0.00,134.000000,,2013-01-03 16:53:00,
2013-01-03 11:03:00,10.0,4.0,-100.00,WNW,282,8.0,14.0,76,0.00,,,0.00,134.000000,,2013-01-03 17:03:00,
2013-01-03 11:12:00,10.0,4.0,-100.00,WNW,282,8.0,14.0,76,0.00,,,0.00,134.000000,,2013-01-03 17:12:00,
2013-01-03 11:20:00,10.0,3.0,-100.00,West,275,7.0,13.0,71,0.00,,,0.00,294.000000,,2013-01-03 17:20:00,
2013-01-03 11:43:00,10.0,3.0,-100.00,West,275,7.0,13.0,71,0.00,,,0.00,294.000000,,2013-01-03 17:43:00,
2013-01-03 11:53:00,10.0,3.0,-100.00,West,275,7.0,13.0,71,0.00,,,0.00,294.000000,,2013-01-03 17:53:00,
2013-01-03 12:03:00,10.0,3.0,-100.00,West,275,7.0,13.0,71,0.00,,,0.00,294.000000,,2013-01-03 18:03:00,
2013-01-03 12:13:00,10.0,3.0,-100.00,West,275,7.0,13.0,71,0.00,,,0.00,294.000000,,2013-01-03 18:13:00,
2013-01-03 12:43:00,12.0,2.0,-100.00,WNW,283,7.0,11.0,63,0.00,,,0.00,374.000000,,2013-01-03 18:43:00,
2013-01-03 12:53:00,12.0,2.0,-100.00,WNW,283,7.0,11.0,63,0.00,,,0.00,374.000000,,2013-01-03 18:53:00,
2013-01-03 13:03:00,12.0,2.0,-100.00,WNW,283,7.0,11.0,63,0.00,,,0.00,374.000000,,2013-01-03 19:03:00,
2013-01-03 13:12:00,12.0,2.0,-100.00,WNW,283,7.0,11.0,63,0.00,,,0.00,374.000000,,2013-01-03 19:12:00,
2013-01-03 13:20:00,13.0,2.0,-100.00,West,272,9.0,13.0,60,0.00,,,0.00,370.000000,,2013-01-03 19:20:00,
2013-01-03 13:56:00,13.0,2.0,-100.00,West,272,9.0,13.0,60,0.00,,,0.00,370.000000,,2013-01-03 19:56:00,
2013-01-03 14:03:00,13.0,2.0,-100.00,West,272,9.0,13.0,60,0.00,,,0.00,370.000000,,2013-01-03 20:03:00,
2013-01-03 14:12:00,13.0,2.0,-100.00,West,272,9.0,13.0,60,0.00,,,0.00,370.000000,,2013-01-03 20:12:00,
2013-01-03 14:20:00,15.0,3.0,-100.00,West,260,8.0,11.0,57,0.00,,,0.00,313.000000,,2013-01-03 20:20:00,
2013-01-03 14:43:00,15.0,3.0,-100.00,West,260,8.0,11.0,57,0.00,,,0.00,313.000000,,2013-01-03 20:43:00,
2013-01-03 14:53:00,15.0,3.0,-100.00,West,260,8.0,11.0,57,0.00,,,0.00,313.000000,,2013-01-03 20:53:00,
2013-01-03 15:02:00,15.0,3.0,-100.00,West,260,8.0,11.0,57,0.00,,,0.00,313.000000,,2013-01-03 21:02:00,
2013-01-03 15:12:00,15.0,3.0,-100.00,West,260,8.0,11.0,57,0.00,,,0.00,313.000000,,2013-01-03 21:12:00,
2013-01-03 15:20:00,15.0,4.0,-100.00,WSW,245,10.0,14.0,60,0.00,,,-99.99,212.000000,,2013-01-03 21:20:00,
2013-01-03 15:53:00,15.0,4.0,-100.00,WSW,245,10.0,14.0,60,0.00,,,-99.99,212.000000,,2013-01-03 21:53:00,
2013-01-03 16:03:00,15.0,4.0,-100.00,WSW,245,10.0,14.0,60,0.00,,,-99.99,212.000000,,2013-01-03 22:03:00,
2013-01-03 16:12:00,15.0,4.0,-100.00,WSW,245,10.0,14.0,60,0.00,,,-99.99,212.000000,,2013-01-03 22:12:00,
2013-01-03 16:20:00,14.0,5.0,-100.00,SW,234,6.0,13.0,67,0.00,,,0.00,67.000000,,2013-01-03 22:20:00,
2013-01-03 16:43:00,14.0,5.0,-100.00,SW,234,6.0,13.0,67,0.00,,,0.00,67.000000,,2013-01-03 22:43:00,
2013-01-03 16:53:00,14.0,5.0,-100.00,SW,234,6.0,13.0,67,0.00,,,0.00,67.000000,,2013-01-03 22:53:00,
2013-01-03 17:03:00,14.0,5.0,-100.00,SW,234,6.0,13.0,67,0.00,,,0.00,67.000000,,2013-01-03 23:03:00,
2013-01-03 17:12:00,14.0,5.0,-100.00,SW,234,6.0,13.0,67,0.00,,,0.00,67.000000,,2013-01-03 23:12:00,
2013-01-03 17:20:00,12.0,5.0,-100.00,SW,227,6.0,13.0,74,0.00,,,0.00,6.000000,,2013-01-03 23:20:00,
2013-01-03 17:43:00,12.0,5.0,-100.00,SW,227,6.0,13.0,74,0.00,,,0.00,6.000000,,2013-01-03 23:43:00,
2013-01-03 17:53:00,12.0,5.0,-100.00,SW,227,6.0,13.0,74,0.00,,,0.00,6.000000,,2013-01-03 23:53:00,
2013-01-03 18:03:00,12.0,5.0,-100.00,SW,227,6.0,13.0,74,0.00,,,0.00,6.000000,,2013-01-04 00:03:00,
2013-01-03 18:12:00,12.0,5.0,-100.00,SW,227,6.0,13.0,74,0.00,,,0.00,6.000000,,2013-01-04 00:12:00,
2013-01-03 18:20:00,11.0,5.0,-100.00,SW,221,7.0,11.0,76,0.00,,,0.00,0.000000,,2013-01-04 00:20:00,
2013-01-03 18:42:00,11.0,5.0,-100.00,SW,221,7.0,11.0,76,0.00,,,0.00,0.000000,,2013-01-04 00:42:00,
2013-01-03 18:53:00,11.0,5.0,-100.00,SW,221,7.0,11.0,76,0.00,,,0.00,0.000000,,2013-01-04 00:53:00,
2013-01-03 19:02:00,11.0,5.0,-100.00,SW,221,7.0,11.0,76,0.00,,,0.00,0.000000,,2013-01-04 01:02:00,
2013-01-03 19:12:00,11.0,5.0,-100.00,SW,221,7.0,11.0,76,0.00,,,0.00,0.000000,,2013-01-04 01:12:00,
2013-01-03 19:20:00,10.0,5.0,-100.00,SSW,210,7.0,11.0,80,0.00,,,0.00,0.000000,,2013-01-04 01:20:00,
2013-01-03 19:42:00,10.0,5.0,-100.00,SSW,210,7.0,11.0,80,0.00,,,0.00,0.000000,,2013-01-04 01:42:00,
2013-01-03 19:52:00,10.0,5.0,-100.00,SSW,210,7.0,11.0,80,0.00,,,0.00,0.000000,,2013-01-04 01:52:00,
2013-01-03 20:02:00,10.0,5.0,-100.00,SSW,210,7.0,11.0,80,0.00,,,0.00,0.000000,,2013-01-04 02:02:00,
2013-01-03 20:12:00,10.0,5.0,-100.00,SSW,210,7.0,11.0,80,0.00,,,0.00,0.000000,,2013-01-04 02:12:00,
2013-01-03 20:20:00,10.0,6.0,-100.00,SW,217,7.0,11.0,83,0.00,,,0.00,0.000000,,2013-01-04 02:20:00,
2013-01-03 20:42:00,10.0,6.0,-100.00,SW,217,7.0,11.0,83,0.00,,,0.00,0.000000,,2013-01-04 02:42:00,
2013-01-03 20:53:00,10.0,6.0,-100.00,SW,217,7.0,11.0,83,0.00,,,0.00,0.000000,,2013-01-04 02:53:00,
2013-01-03 21:02:00,10.0,6.0,-100.00,SW,217,7.0,11.0,83,0.00,,,0.00,0.000000,,2013-01-04 03:02:00,
2013-01-03 21:12:00,10.0,6.0,-100.00,SW,217,7.0,11.0,83,0.00,,,0.00,0.000000,,2013-01-04 03:12:00,
2013-01-03 21:20:00,10.0,6.0,-100.00,SSW,212,6.0,11.0,84,0.00,,,0.00,0.000000,,2013-01-04 03:20:00,
2013-01-03 21:43:00,10.0,6.0,-100.00,SSW,212,6.0,11.0,84,0.00,,,0.00,0.000000,,2013-01-04 03:43:00,
2013-01-03 21:53:00,10.0,6.0,-100.00,SSW,212,6.0,11.0,84,0.00,,,0.00,0.000000,,2013-01-04 03:53:00,
2013-01-03 22:02:00,10.0,6.0,-100.00,SSW,212,6.0,11.0,84,0.00,,,0.00,0.000000,,2013-01-04 04:02:00,
2013-01-03 22:12:00,10.0,6.0,-100.00,SSW,212,6.0,11.0,84,0.00,,,0.00,0.000000,,2013-01-04 04:12:00,
2013-01-03 22:20:00,10.0,7.0,-100.00,SSW,210,5.0,10.0,86,0.00,,,0.00,0.000000,,2013-01-04 04:20:00,
2013-01-03 22:42:00,10.0,7.0,-100.00,SSW,210,5.0,10.0,86,0.00,,,0.00,0.000000,,2013-01-04 04:42:00,
2013-01-03 22:52:00,10.0,7.0,-100.00,SSW,210,5.0,10.0,86,0.00,,,0.00,0.000000,,2013-01-04 04:52:00,
2013-01-03 23:03:00,10.0,7.0,-100.00,SSW,210,5.0,10.0,86,0.00,,,0.00,0.000000,,2013-01-04 05:03:00,
2013-01-03 23:12:00,10.0,7.0,-100.00,SSW,210,5.0,10.0,86,0.00,,,0.00,0.000000,,2013-01-04 05:12:00,
2013-01-03 23:20:00,11.0,8.0,-100.00,SSW,206,7.0,9.0,87,0.00,,,0.00,0.000000,,2013-01-04 05:20:00,
2013-01-03 23:42:00,11.0,8.0,-100.00,SSW,206,7.0,9.0,87,0.00,,,0.00,0.000000,,2013-01-04 05:42:00,
2013-01-03 23:53:00,11.0,8.0,-100.00,SSW,206,7.0,9.0,87,0.00,,,0.00,0.000000,,2013-01-04 05:53:00,